createdAt,value
2022-12-18T00:01:29.466Z,73.24
2022-12-18T00:03:56.952Z,72.75
2022-12-18T00:06:27.599Z,73.13
2022-12-18T00:08:55.323Z,73.53
2022-12-18T00:11:24.818Z,73.15
2022-12-18T00:13:52.880Z,72.92
2022-12-18T00:16:22.876Z,72.40
2022-12-18T00:18:51.924Z,72.21
2022-12-18T00:21:20.070Z,71.84
2022-12-18T00:23:48.556Z,71.54
2022-12-18T00:26:27.280Z,71.60
2022-12-18T00:29:03.150Z,71.54
2022-12-18T00:31:31.013Z,71.49
2022-12-18T00:33:58.840Z,71.88
2022-12-18T00:36:30.985Z,71.58
2022-12-18T00:38:59.540Z,71.60
2022-12-18T00:41:44.759Z,71.11
2022-12-18T00:44:13.700Z,70.08
2022-12-18T00:46:41.324Z,69.19
2022-12-18T00:49:08.138Z,69.40
2022-12-18T00:51:35.000Z,70.77
2022-12-18T00:54:01.761Z,70.28
2022-12-18T00:56:28.466Z,69.60
2022-12-18T00:58:55.176Z,69.11
2022-12-18T01:01:22.335Z,69.54
2022-12-18T01:03:50.249Z,69.83
2022-12-18T01:06:17.790Z,70.13
2022-12-18T01:08:44.626Z,69.73
2022-12-18T01:11:17.152Z,70.19
2022-12-18T01:13:44.593Z,69.80
2022-12-18T01:16:16.409Z,70.51
2022-12-18T01:18:43.448Z,70.33
2022-12-18T01:21:12.510Z,70.27
2022-12-18T01:23:39.656Z,70.12
2022-12-18T01:26:19.632Z,69.63
2022-12-18T01:28:46.221Z,70.44
2022-12-18T01:31:23.380Z,70.43
2022-12-18T01:33:51.325Z,70.13
2022-12-18T01:36:21.023Z,70.33
2022-12-18T01:38:49.814Z,69.81
2022-12-18T01:41:18.720Z,70.45
2022-12-18T01:43:58.372Z,70.04
2022-12-18T01:46:26.528Z,70.68
2022-12-18T01:49:02.270Z,71.22
2022-12-18T01:51:31.468Z,71.60
2022-12-18T01:53:59.468Z,72.35
2022-12-18T01:56:26.216Z,72.71
2022-12-18T01:59:07.626Z,71.49
2022-12-18T02:01:34.635Z,70.72
2022-12-18T02:04:24.231Z,70.46
2022-12-18T02:07:01.759Z,70.03
2022-12-18T02:09:42.108Z,70.42
2022-12-18T02:12:20.671Z,70.49
2022-12-18T02:15:03.257Z,70.33
2022-12-18T02:17:43.098Z,71.25
2022-12-18T02:20:27.366Z,71.86
2022-12-18T02:23:05.988Z,73.27
2022-12-18T02:25:55.366Z,72.93
2022-12-18T02:28:27.328Z,72.21
2022-12-18T02:30:58.927Z,71.58
2022-12-18T02:33:28.334Z,70.49
2022-12-18T02:35:59.549Z,70.73
2022-12-18T02:38:29.901Z,71.15
2022-12-18T02:41:00.745Z,70.36
2022-12-18T02:43:27.454Z,69.88
2022-12-18T02:45:59.586Z,68.21
2022-12-18T02:48:36.122Z,68.63
2022-12-18T02:51:30.582Z,68.99
2022-12-18T02:54:14.812Z,68.94
2022-12-18T02:56:51.397Z,68.85
2022-12-18T02:59:29.839Z,68.73
2022-12-18T03:02:04.951Z,68.34
2022-12-18T03:05:05.169Z,68.73
2022-12-18T03:07:40.313Z,67.99
2022-12-18T03:10:15.382Z,69.32
2022-12-18T03:12:51.228Z,69.48
2022-12-18T03:15:24.362Z,69.67
2022-12-18T03:18:03.863Z,69.62
2022-12-18T03:20:35.266Z,69.36
2022-12-18T03:23:10.323Z,70.10
2022-12-18T03:25:42.740Z,70.90
2022-12-18T03:28:15.992Z,71.62
2022-12-18T03:30:45.808Z,71.79
2022-12-18T03:33:41.131Z,70.97
2022-12-18T03:36:08.620Z,72.17
2022-12-18T03:38:35.410Z,72.66
2022-12-18T03:41:45.365Z,72.03
2022-12-18T03:44:36.017Z,70.33
2022-12-18T03:47:28.610Z,69.52
2022-12-18T03:50:17.422Z,70.21
2022-12-18T03:53:09.584Z,70.20
2022-12-18T03:55:37.418Z,69.73
2022-12-18T03:58:08.486Z,70.07
2022-12-18T04:00:50.855Z,70.38
2022-12-18T04:03:22.703Z,70.55
2022-12-18T04:05:55.492Z,70.99
2022-12-18T04:08:27.761Z,71.03
2022-12-18T04:11:02.979Z,71.54
2022-12-18T04:13:35.582Z,71.45
2022-12-18T04:16:06.336Z,71.69
2022-12-18T04:18:33.578Z,70.99
2022-12-18T04:21:02.217Z,70.79
2022-12-18T04:23:29.404Z,69.40
2022-12-18T04:25:58.735Z,68.96
2022-12-18T04:28:41.057Z,68.67
2022-12-18T04:31:07.722Z,69.85
2022-12-18T04:33:34.690Z,70.89
2022-12-18T04:36:02.273Z,70.68
2022-12-18T04:39:04.337Z,71.18
2022-12-18T04:41:34.399Z,71.39
2022-12-18T04:44:01.969Z,71.24
2022-12-18T04:46:28.629Z,70.81
2022-12-18T04:48:55.337Z,69.62
2022-12-18T04:51:26.433Z,70.21
2022-12-18T04:53:54.435Z,70.07
2022-12-18T04:56:21.432Z,69.30
2022-12-18T04:58:48.183Z,68.42
2022-12-18T05:01:18.706Z,68.77
2022-12-18T05:03:45.883Z,70.10
2022-12-18T05:06:12.786Z,70.59
2022-12-18T05:08:39.662Z,70.66
2022-12-18T05:11:13.857Z,70.97
2022-12-18T05:13:41.039Z,71.16
2022-12-18T05:16:08.631Z,70.94
2022-12-18T05:18:36.322Z,70.92
2022-12-18T05:21:03.757Z,74.33
2022-12-18T05:23:33.675Z,74.89
2022-12-18T05:26:04.476Z,75.26
2022-12-18T05:28:32.893Z,74.41
2022-12-18T05:31:01.733Z,73.62
2022-12-18T05:33:31.985Z,72.68
2022-12-18T05:36:04.533Z,70.79
2022-12-18T05:38:32.793Z,71.17
2022-12-18T05:41:00.135Z,71.37
2022-12-18T05:43:28.273Z,71.50
2022-12-18T05:45:55.392Z,72.49
2022-12-18T05:48:22.785Z,72.68
2022-12-18T05:50:51.034Z,71.78
2022-12-18T05:53:20.374Z,71.72
2022-12-18T05:55:48.042Z,70.78
2022-12-18T05:58:15.729Z,71.25
2022-12-18T06:00:46.000Z,71.45
2022-12-18T06:03:14.225Z,70.97
2022-12-18T06:05:44.008Z,70.56
2022-12-18T06:08:11.655Z,70.73
2022-12-18T06:10:38.933Z,70.28
2022-12-18T06:13:06.811Z,70.35
2022-12-18T06:15:33.903Z,70.45
2022-12-18T06:18:01.937Z,70.78
2022-12-18T06:20:33.777Z,69.92
2022-12-18T06:23:01.290Z,68.93
2022-12-18T06:25:28.124Z,69.20
2022-12-18T06:27:54.789Z,67.74
2022-12-18T06:30:22.372Z,67.75
2022-12-18T06:32:54.699Z,69.20
2022-12-18T06:35:23.390Z,70.10
2022-12-18T06:37:49.986Z,70.44
2022-12-18T06:40:17.498Z,69.72
2022-12-18T06:42:44.075Z,69.43
2022-12-18T06:45:11.057Z,68.81
2022-12-18T06:47:37.830Z,68.81
2022-12-18T06:50:04.692Z,68.63
2022-12-18T06:52:33.222Z,68.59
2022-12-18T06:55:01.192Z,68.99
2022-12-18T06:57:27.983Z,68.06
2022-12-18T06:59:54.635Z,68.13
2022-12-18T07:02:21.548Z,67.91
2022-12-18T07:04:48.151Z,68.65
2022-12-18T07:07:14.795Z,68.28
2022-12-18T07:09:41.424Z,66.94
2022-12-18T07:12:09.181Z,66.91
2022-12-18T07:14:35.927Z,66.56
2022-12-18T07:17:02.804Z,66.41
2022-12-18T07:19:30.650Z,66.35
2022-12-18T07:21:57.809Z,66.92
2022-12-18T07:24:24.449Z,67.23
2022-12-18T07:26:51.147Z,66.97
2022-12-18T07:29:17.742Z,66.62
2022-12-18T07:31:45.649Z,66.62
2022-12-18T07:34:13.574Z,66.65
2022-12-18T07:36:40.454Z,66.78
2022-12-18T07:39:07.094Z,67.80
2022-12-18T07:41:34.264Z,67.57
2022-12-18T07:44:11.598Z,67.40
2022-12-18T07:46:38.359Z,68.10
2022-12-18T07:49:05.273Z,69.33
2022-12-18T07:51:32.078Z,68.41
2022-12-18T07:53:58.920Z,68.68
2022-12-18T07:56:27.730Z,68.66
2022-12-18T07:58:55.891Z,69.32
2022-12-18T08:01:22.874Z,69.46
2022-12-18T08:03:50.194Z,69.15
2022-12-18T08:06:22.402Z,68.78
2022-12-18T08:08:55.588Z,69.95
2022-12-18T08:11:23.889Z,69.93
2022-12-18T08:13:50.588Z,69.58
2022-12-18T08:16:18.283Z,69.49
2022-12-18T08:18:44.981Z,69.40
2022-12-18T08:21:14.325Z,69.20
2022-12-18T08:23:43.340Z,68.13
2022-12-18T08:26:11.904Z,69.18
2022-12-18T08:28:38.744Z,70.37
2022-12-18T08:31:06.749Z,71.92
2022-12-18T08:33:34.077Z,70.62
2022-12-18T08:36:01.829Z,69.84
2022-12-18T08:38:29.424Z,69.84
2022-12-18T08:41:03.395Z,69.35
2022-12-18T08:43:48.580Z,69.88
2022-12-18T08:46:15.548Z,71.27
2022-12-18T08:48:42.506Z,71.56
2022-12-18T08:51:10.661Z,72.33
2022-12-18T08:53:38.793Z,72.57
2022-12-18T08:56:06.429Z,74.59
2022-12-18T08:58:33.138Z,75.63
2022-12-18T09:01:04.567Z,76.44
2022-12-18T09:03:35.076Z,77.59
2022-12-18T09:06:01.886Z,77.96
2022-12-18T09:08:29.166Z,78.16
2022-12-18T09:10:56.558Z,77.98
2022-12-18T09:13:23.975Z,77.09
2022-12-18T09:15:53.318Z,77.04
2022-12-18T09:18:23.874Z,76.58
2022-12-18T09:20:52.899Z,75.82
2022-12-18T09:23:19.937Z,75.95
2022-12-18T09:25:46.654Z,75.67
2022-12-18T09:28:15.753Z,75.46
2022-12-18T09:30:45.826Z,74.90
2022-12-18T09:33:12.517Z,75.02
2022-12-18T09:35:40.612Z,74.99
2022-12-18T09:38:08.108Z,74.52
2022-12-18T09:40:41.085Z,74.46
2022-12-18T09:43:34.444Z,74.50
2022-12-18T09:46:17.254Z,74.68
2022-12-18T09:48:49.298Z,74.08
2022-12-18T09:51:21.486Z,73.94
2022-12-18T09:53:54.346Z,73.83
2022-12-18T09:56:24.046Z,73.33
2022-12-18T09:58:56.757Z,74.57
2022-12-18T10:01:24.299Z,100.00
2022-12-18T10:03:55.315Z,98.12
2022-12-18T10:06:36.560Z,94.81
2022-12-18T10:09:19.416Z,77.42
2022-12-18T10:12:05.808Z,65.13
2022-12-18T10:15:06.045Z,67.67
2022-12-18T10:17:44.135Z,70.77
2022-12-18T10:20:39.807Z,71.98
2022-12-18T10:23:09.474Z,73.16
2022-12-18T10:25:51.312Z,73.10
2022-12-18T10:28:20.361Z,73.45
2022-12-18T10:30:47.289Z,73.83
2022-12-18T10:33:24.998Z,75.10
2022-12-18T10:35:52.387Z,74.42
2022-12-18T10:38:18.949Z,74.83
2022-12-18T10:40:57.017Z,74.63
2022-12-18T10:43:24.137Z,74.79
2022-12-18T10:46:00.182Z,75.15
2022-12-18T10:48:29.080Z,75.08
2022-12-18T10:51:12.982Z,74.34
2022-12-18T10:53:43.721Z,74.36
2022-12-18T10:56:10.654Z,74.57
2022-12-18T10:58:40.219Z,74.68
2022-12-18T11:01:21.124Z,75.11
2022-12-18T11:04:02.672Z,75.17
2022-12-18T11:06:29.948Z,74.88
2022-12-18T11:09:12.219Z,75.38
2022-12-18T11:11:41.248Z,75.22
2022-12-18T11:14:16.532Z,75.72
2022-12-18T11:17:23.898Z,76.09
2022-12-18T11:19:40.697Z,75.61
2022-12-18T11:22:27.577Z,74.99
2022-12-18T11:25:34.619Z,74.27
2022-12-18T11:28:25.360Z,75.17
2022-12-18T11:31:24.529Z,74.57
2022-12-18T11:34:27.458Z,74.63
2022-12-18T11:36:47.543Z,74.47
2022-12-18T11:39:25.651Z,74.81
2022-12-18T11:42:12.641Z,75.18
2022-12-18T11:44:51.998Z,75.53
2022-12-18T11:47:31.882Z,75.96
2022-12-18T11:50:02.293Z,75.63
2022-12-18T11:52:39.397Z,75.74
2022-12-18T11:55:13.811Z,75.30
2022-12-18T11:57:47.592Z,75.34
2022-12-18T12:00:21.020Z,74.89
2022-12-18T12:03:47.600Z,75.04
2022-12-18T12:06:41.432Z,76.30
2022-12-18T12:09:40.430Z,75.97
2022-12-18T12:12:30.473Z,75.74
2022-12-18T12:15:15.476Z,74.71
2022-12-18T12:17:51.440Z,74.12
2022-12-18T12:20:56.089Z,74.22
2022-12-18T12:23:31.842Z,73.93
2022-12-18T12:26:28.508Z,74.17
2022-12-18T12:29:20.830Z,73.88
2022-12-18T12:32:03.200Z,73.92
2022-12-18T12:35:17.279Z,74.14
2022-12-18T12:38:07.385Z,73.96
2022-12-18T12:40:52.475Z,73.69
2022-12-18T12:43:50.442Z,73.80
2022-12-18T12:46:22.361Z,74.11
2022-12-18T12:48:53.708Z,74.19
2022-12-18T12:51:41.156Z,74.98
2022-12-18T12:54:18.165Z,74.92
2022-12-18T12:57:08.681Z,74.53
2022-12-18T13:00:14.686Z,75.15
2022-12-18T13:02:58.184Z,74.53
2022-12-18T13:05:44.236Z,74.73
2022-12-18T13:08:25.524Z,74.82
2022-12-18T13:11:13.868Z,74.52
2022-12-18T13:13:55.877Z,75.16
2022-12-18T13:16:26.676Z,75.32
2022-12-18T13:18:59.917Z,74.22
2022-12-18T13:21:28.609Z,73.99
2022-12-18T13:23:56.772Z,74.37
2022-12-18T13:26:29.111Z,73.88
2022-12-18T13:28:58.087Z,74.28
2022-12-18T13:31:30.910Z,74.53
2022-12-18T13:34:28.175Z,75.17
2022-12-18T13:37:19.920Z,74.17
2022-12-18T13:39:46.629Z,74.49
2022-12-18T13:42:34.383Z,75.53
2022-12-18T13:45:01.520Z,74.79
2022-12-18T13:47:41.196Z,74.22
2022-12-18T13:50:23.433Z,74.56
2022-12-18T13:52:52.394Z,74.89
2022-12-18T13:55:21.869Z,74.86
2022-12-18T13:57:48.637Z,75.24
2022-12-18T14:00:29.140Z,74.92
2022-12-18T14:02:57.387Z,75.15
2022-12-18T14:05:33.311Z,74.79
2022-12-18T14:08:11.601Z,74.31
2022-12-18T14:10:48.447Z,74.69
2022-12-18T14:13:32.564Z,74.70
2022-12-18T14:16:02.653Z,74.81
2022-12-18T14:18:40.003Z,74.42
2022-12-18T14:21:17.958Z,74.73
2022-12-18T14:23:45.464Z,74.39
2022-12-18T14:26:30.595Z,74.51
2022-12-18T14:29:11.919Z,75.38
2022-12-18T14:31:39.618Z,75.34
2022-12-18T14:34:06.359Z,76.09
2022-12-18T14:36:33.206Z,76.07
2022-12-18T14:39:00.519Z,76.64
2022-12-18T14:41:28.795Z,76.27
2022-12-18T14:43:55.845Z,76.59
2022-12-18T14:46:47.331Z,76.16
2022-12-18T14:49:28.464Z,76.21
2022-12-18T14:51:57.630Z,75.83
2022-12-18T14:54:26.044Z,76.09
2022-12-18T14:56:57.854Z,75.83
2022-12-18T14:59:27.908Z,75.38
2022-12-18T15:02:21.335Z,75.54
2022-12-18T15:04:48.535Z,75.75
2022-12-18T15:07:20.037Z,76.34
2022-12-18T15:10:14.675Z,76.00
2022-12-18T15:12:49.214Z,75.85
2022-12-18T15:15:34.580Z,76.00
2022-12-18T15:18:02.831Z,76.13
2022-12-18T15:20:33.624Z,76.05
2022-12-18T15:23:00.454Z,76.22
2022-12-18T15:25:38.941Z,75.88
2022-12-18T15:28:20.305Z,75.70
2022-12-18T15:31:26.606Z,75.80
2022-12-18T15:33:54.067Z,75.53
2022-12-18T15:36:26.885Z,76.22
2022-12-18T15:39:04.688Z,75.70
2022-12-18T15:41:36.726Z,75.53
2022-12-18T15:44:15.887Z,75.07
2022-12-18T15:46:43.122Z,74.81
2022-12-18T15:49:09.833Z,75.44
2022-12-18T15:51:38.515Z,75.24
2022-12-18T15:54:11.060Z,75.07
2022-12-18T15:57:20.237Z,75.05
2022-12-18T15:59:46.891Z,75.13
2022-12-18T16:02:19.305Z,75.20
2022-12-18T16:05:05.847Z,75.46
2022-12-18T16:07:32.393Z,75.20
2022-12-18T16:10:01.104Z,75.70
2022-12-18T16:12:29.304Z,75.56
2022-12-18T16:14:56.093Z,75.88
2022-12-18T16:17:22.807Z,75.11
2022-12-18T16:19:50.537Z,75.14
2022-12-18T16:22:29.385Z,75.58
2022-12-18T16:24:57.955Z,75.37
2022-12-18T16:27:26.027Z,75.65
2022-12-18T16:29:52.716Z,75.22
2022-12-18T16:32:21.621Z,76.10
2022-12-18T16:34:48.521Z,75.56
2022-12-18T16:37:29.288Z,75.42
2022-12-18T16:39:56.074Z,75.05
2022-12-18T16:42:22.756Z,75.51
2022-12-18T16:44:50.606Z,75.72
2022-12-18T16:47:19.760Z,75.22
2022-12-18T16:49:46.791Z,75.81
2022-12-18T16:52:14.436Z,75.78
2022-12-18T16:54:41.275Z,76.28
2022-12-18T16:57:13.132Z,76.83
2022-12-18T16:59:40.049Z,76.91
2022-12-18T17:02:13.248Z,76.33
2022-12-18T17:04:40.089Z,76.62
2022-12-18T17:07:06.785Z,77.23
2022-12-18T17:09:33.401Z,76.93
2022-12-18T17:12:04.253Z,76.70
2022-12-18T17:14:35.216Z,76.82
2022-12-18T17:19:50.627Z,77.22
2022-12-18T17:22:17.284Z,77.48
2022-12-18T17:24:43.828Z,77.47
2022-12-18T17:27:10.777Z,77.42
2022-12-18T17:29:41.147Z,77.28
2022-12-18T17:32:11.994Z,77.69
2022-12-18T17:34:41.020Z,77.32
2022-12-18T17:37:08.006Z,77.50
2022-12-18T17:39:34.931Z,77.98
2022-12-18T17:42:01.805Z,77.57
2022-12-18T17:44:28.726Z,77.91
2022-12-18T17:46:55.454Z,77.79
2022-12-18T17:49:22.733Z,77.49
2022-12-18T17:51:49.855Z,78.10
2022-12-18T17:54:16.691Z,77.76
2022-12-18T17:56:43.530Z,77.46
2022-12-18T17:59:11.169Z,77.97
2022-12-18T18:01:44.104Z,77.55
2022-12-18T18:04:11.547Z,77.47
2022-12-18T18:06:39.112Z,77.40
2022-12-18T18:09:08.215Z,77.42
2022-12-18T18:12:01.476Z,77.47
2022-12-18T18:14:29.268Z,77.56
2022-12-18T18:16:56.505Z,77.15
2022-12-18T18:19:25.661Z,77.52
2022-12-18T18:21:56.468Z,77.72
2022-12-18T18:24:24.191Z,77.24
2022-12-18T18:26:51.346Z,77.97
2022-12-18T18:29:21.032Z,77.71
2022-12-18T18:31:48.777Z,78.21
2022-12-18T18:34:27.611Z,77.46
2022-12-18T18:36:54.398Z,77.82
2022-12-18T18:39:21.236Z,77.75
2022-12-18T18:41:49.290Z,77.61
2022-12-18T18:44:17.955Z,77.78
2022-12-18T18:46:45.414Z,77.75
2022-12-18T18:49:13.809Z,78.12
2022-12-18T18:51:41.670Z,77.83
2022-12-18T18:54:08.909Z,77.81
2022-12-18T18:59:31.549Z,78.61
2022-12-18T19:02:00.640Z,77.70
2022-12-18T19:04:30.911Z,77.73
2022-12-18T19:06:57.448Z,77.34
2022-12-18T19:09:25.694Z,77.28
2022-12-18T19:12:12.104Z,77.28
2022-12-18T19:14:38.722Z,76.79
2022-12-18T19:17:05.465Z,76.84
2022-12-18T19:19:32.421Z,77.19
2022-12-18T19:21:59.187Z,77.29
2022-12-18T19:24:29.831Z,77.05
2022-12-18T19:26:58.192Z,76.42
2022-12-18T19:29:25.075Z,76.90
2022-12-18T19:31:52.088Z,77.02
2022-12-18T19:34:19.368Z,76.79
2022-12-18T19:36:47.059Z,76.71
2022-12-18T19:39:19.393Z,76.24
2022-12-18T19:41:46.890Z,76.70
2022-12-18T19:44:15.909Z,76.28
2022-12-18T19:46:43.799Z,76.42
2022-12-18T19:49:17.617Z,76.47
2022-12-18T19:51:45.645Z,75.74
2022-12-18T19:54:17.221Z,75.47
2022-12-18T19:56:44.651Z,76.21
2022-12-18T19:59:11.633Z,75.94
2022-12-18T20:01:40.713Z,76.10
2022-12-18T20:04:07.805Z,75.88
2022-12-18T20:10:35.067Z,76.32
2022-12-18T20:13:01.863Z,76.06
2022-12-18T20:15:47.340Z,76.10
2022-12-18T20:18:13.917Z,76.10
2022-12-18T20:21:14.366Z,76.01
2022-12-18T20:23:46.229Z,76.39
2022-12-18T20:26:13.145Z,76.83
2022-12-18T20:28:43.954Z,76.36
2022-12-18T20:31:13.495Z,76.18
2022-12-18T20:33:42.400Z,76.22
2022-12-18T20:36:52.218Z,76.07
2022-12-18T20:39:19.234Z,75.83
2022-12-18T20:41:47.131Z,76.46
2022-12-18T20:44:34.129Z,76.58
2022-12-18T20:47:03.376Z,76.52
2022-12-18T20:49:35.480Z,75.81
2022-12-18T20:52:04.142Z,76.86
2022-12-18T20:54:30.929Z,76.98
2022-12-18T20:56:57.830Z,76.98
2022-12-18T20:59:25.840Z,77.08
2022-12-18T21:01:54.648Z,77.03
2022-12-18T21:04:21.966Z,76.53
2022-12-18T21:06:54.123Z,75.91
2022-12-18T21:09:27.538Z,75.98
2022-12-18T21:12:17.265Z,76.78
2022-12-18T21:14:44.799Z,76.64
2022-12-18T21:17:11.873Z,76.17
2022-12-18T21:19:38.973Z,76.45
2022-12-18T21:22:05.720Z,76.81
2022-12-18T21:24:32.903Z,76.74
2022-12-18T21:26:59.845Z,76.32
2022-12-18T21:29:27.019Z,76.56
2022-12-18T21:31:54.704Z,76.82
2022-12-18T21:34:25.624Z,76.57
2022-12-18T21:36:53.168Z,76.58
2022-12-18T21:39:20.223Z,76.68
2022-12-18T21:42:08.368Z,76.35
2022-12-18T21:44:40.119Z,76.13
2022-12-18T21:47:21.772Z,75.78
2022-12-18T21:49:53.457Z,75.37
2022-12-18T21:52:31.185Z,76.04
2022-12-18T21:55:07.955Z,75.61
2022-12-18T21:57:35.759Z,75.60
2022-12-18T22:00:03.533Z,76.03
2022-12-18T22:02:39.517Z,75.34
2022-12-18T22:05:06.882Z,76.07
2022-12-18T22:07:33.849Z,75.92
2022-12-18T22:10:00.903Z,76.39
2022-12-18T22:12:43.618Z,76.38
2022-12-18T22:15:14.352Z,76.52
2022-12-18T22:17:59.825Z,76.53
2022-12-18T22:20:27.597Z,76.38
2022-12-18T22:22:55.791Z,76.53
2022-12-18T22:25:22.362Z,76.64
2022-12-18T22:28:08.951Z,76.65
2022-12-18T22:30:35.871Z,76.30
2022-12-18T22:33:03.681Z,76.36
2022-12-18T22:35:30.461Z,76.75
2022-12-18T22:37:59.607Z,76.36
2022-12-18T22:40:26.947Z,75.97
2022-12-18T22:42:54.588Z,76.24
2022-12-18T22:45:21.129Z,76.24
2022-12-18T22:47:47.638Z,75.77
2022-12-18T22:50:14.781Z,76.17
2022-12-18T22:52:41.468Z,75.72
2022-12-18T22:55:08.819Z,75.35
2022-12-18T22:57:35.579Z,75.91
2022-12-18T23:00:05.196Z,75.30
2022-12-18T23:02:32.207Z,75.15
2022-12-18T23:04:58.819Z,75.33
2022-12-18T23:07:25.486Z,75.81
2022-12-18T23:09:57.382Z,75.73
2022-12-18T23:12:27.703Z,75.47
2022-12-18T23:14:54.914Z,75.84
2022-12-18T23:17:21.634Z,75.30
2022-12-18T23:19:49.443Z,75.13
2022-12-18T23:22:17.079Z,76.06
2022-12-18T23:24:43.825Z,75.65
2022-12-18T23:27:11.671Z,75.98
2022-12-18T23:29:39.530Z,76.03
2022-12-18T23:32:07.197Z,75.45
2022-12-18T23:34:33.876Z,75.70
2022-12-18T23:37:01.280Z,76.11
2022-12-18T23:39:29.066Z,76.02
2022-12-18T23:42:01.010Z,75.59
2022-12-18T23:44:28.222Z,75.37
2022-12-18T23:46:55.527Z,75.68
2022-12-18T23:49:22.553Z,75.47
2022-12-18T23:51:49.412Z,75.26
2022-12-18T23:54:16.137Z,75.16
2022-12-18T23:56:43.085Z,75.04
2022-12-18T23:59:09.951Z,75.04
